Route Details

Aircraft Information
Group: Trans-Pacific Ops
Types: B744, MD11
Route Data
Distance: 3479nm
Duration: 7h 40m
Origin METAR: PANC 010605Z 00000KT 1SM R07R/1800V2200FT BR VV002 M03/M03 A2975 RMK AO2 T10281033 CHINO N VISNO N $
Dest. METAR: KMIA 010553Z 11004KT 10SM CLR 23/20 A3017 RMK AO2 SLP218 T02280200 10250 20228 58008 $
Freight Data
(for Feb 1, 2023)
Load Factor:
67%
Manifested Cargo: 149,699lbs
Financial History
Total Freight: 1,422,608lbs
Average Load: 0lbs/flt
Fuel Used: 1,411,488lbs
Avg. Fuel Used: 0lbs/flt
Fuel Expense: $1,340,389
Avg. Fuel Expense: $0
Avg. Fuel Cost: $0/lbs
Total Gross Income: $3,410,737
Pilot Pay: $2,080
Total Expenses: $504,389
Total Revenue: $1,544,108
Average Revenue: $0

Capitol Logistics 801




PANC
Ted Stevens Anchorage International Airport
Anchorage, Alaska
KMIA
Miami International Airport
Miami, Florida

Activity Log

Date Flight Route Aircraft Duration
07/22/2022 CPX801 DCT YESKA DCT COHIL DCT GOROV DCT 58N126W DCT LEPET DCT NUBEG Q971 WAINN DCT IMOTA DCT GORAK DCT MOT DCT SMERF DCT YUPER DCT CARET DCT AGNUS DCT SIDAE DCT BNA DCT ATL DCT CMIKE DCT PAINN DCT OMN ANNEY4 B744 7h 13m
07/20/2022 CPX801 DCT YESKA DCT COHIL DCT GOROV DCT 58N126W DCT LEPET DCT NUBEG Q971 WAINN DCT IMOTA DCT GORAK DCT MOT DCT SMERF DCT YUPER DCT CARET DCT AGNUS DCT SIDAE DCT BNA DCT ATL DCT CMIKE DCT PAINN DCT OMN ANNEY4 MD11 7h 34m
07/11/2022 CPX901 DCT YESKA DCT COHIL DCT GOROV DCT 58N126W DCT LEPET DCT NUBEG Q971 WAINN DCT IMOTA DCT GORAK DCT MOT DCT SMERF DCT YUPER DCT CARET DCT AGNUS DCT SIDAE DCT BNA DCT ATL DCT CMIKE DCT PAINN DCT OMN ANNEY4 B744 7h 32m
10/18/2021 CPX2453 YESKA COHIL GOROV/N0494F350 58N126W LEPET NUBEG YWV VLN MOT SMERF/N0490F370 YUPER CARET AGNUS AE BNA ATL CMIKE PAINN OMN ANNEY4 B744 7h 20m
12/31/2019 CPX107 JOH J501 YAK NCA10 YQU J515 YEG SEFFY VLN J483 MOT ABR J45 FSD J45 DSM Q19 LAJUG Q19 BNA BULZI NICKI Q81 ENDEW JUULI SSCOT5 B744 8h 32m
12/17/2019 CPX107 JOH J501 YAK NCA10 YQU J515 YEG SEFFY VLN J483 MOT ABR J45 FSD J45 DSM Q19 LAJUG Q19 BNA BULZI NICKI Q81 ENDEW JUULI SSCOT5 B77L 7h 44m
12/08/2019 CPX107 JOH J501 YAK NCA10 YQU J515 YEG SEFFY VLN J483 MOT ABR J45 FSD J45 DSM Q19 LAJUG Q19 BNA BULZI NICKI Q81 ENDEW JUULI SSCOT5 B744 8h 06m
11/17/2019 CPX107 JOH J501 YAK NCA10 YQU J515 YEG SEFFY VLN J483 MOT ABR J45 FSD J45 DSM Q19 LAJUG Q19 BNA BULZI NICKI Q81 ENDEW JUULI SSCOT5 B744 7h 26m
09/27/2019 CPX107 JOH J501 YAK NCA10 YQU J515 YEG SEFFY VLN J483 MOT ABR J45 FSD J45 DSM Q19 LAJUG Q19 BNA BULZI NICKI Q81 ENDEW JUULI SSCOT5 B744 9h 07m
03/26/2019 CPX107 JOH J501 YAK NCA10 YQU J515 YEG SEFFY VLN J483 MOT ABR J45 FSD J45 DSM Q19 LAJUG Q19 BNA BULZI NICKI Q81 ENDEW JUULI SSCOT5 B744 7h 40m